createdAt,value
2019-01-05T00:01:45.567Z,7.04
2019-01-05T00:04:15.456Z,7.09
2019-01-05T00:07:01.635Z,7.12
2019-01-05T00:09:47.827Z,7.16
2019-01-05T00:12:17.738Z,7.16
2019-01-05T00:14:53.507Z,7.16
2019-01-05T00:17:35.320Z,7.16
2019-01-05T00:20:18.135Z,7.21
2019-01-05T00:22:50.623Z,7.20
2019-01-05T00:25:26.642Z,7.25
2019-01-05T00:28:02.746Z,7.25
2019-01-05T00:30:35.339Z,7.30
2019-01-05T00:33:07.949Z,7.30
2019-01-05T00:35:56.209Z,7.32
2019-01-05T00:38:35.174Z,7.31
2019-01-05T00:41:05.149Z,7.36
2019-01-05T00:43:51.053Z,7.39
2019-01-05T00:46:26.786Z,7.39
2019-01-05T00:49:05.527Z,7.41
2019-01-05T00:51:38.041Z,7.45
2019-01-05T00:54:08.706Z,7.47
2019-01-05T00:56:55.265Z,7.45
2019-01-05T00:59:40.996Z,7.48
2019-01-05T01:02:11.031Z,7.55
2019-01-05T01:04:57.393Z,7.52
2019-01-05T01:07:43.760Z,7.52
2019-01-05T01:10:25.561Z,7.61
2019-01-05T01:13:11.649Z,7.62
2019-01-05T01:15:57.132Z,7.61
2019-01-05T01:18:43.639Z,7.67
2019-01-05T01:21:22.436Z,7.70
2019-01-05T01:23:52.396Z,7.67
2019-01-05T01:26:25.022Z,7.67
2019-01-05T01:29:11.540Z,7.69
2019-01-05T01:31:41.497Z,7.74
2019-01-05T01:34:27.692Z,7.79
2019-01-05T01:36:57.588Z,7.79
2019-01-05T01:39:43.524Z,7.78
2019-01-05T01:42:22.550Z,7.77
2019-01-05T01:44:52.530Z,7.80
2019-01-05T01:47:31.773Z,7.83
2019-01-05T01:50:08.458Z,7.79
2019-01-05T01:52:54.682Z,7.82
2019-01-05T01:55:30.698Z,7.87
2019-01-05T01:58:16.735Z,7.88
2019-01-05T02:00:46.762Z,7.87
2019-01-05T02:03:16.734Z,7.93
2019-01-05T02:05:53.960Z,7.92
2019-01-05T02:08:27.040Z,7.94
2019-01-05T02:11:11.939Z,7.92
2019-01-05T02:13:58.922Z,7.96
2019-01-05T02:16:44.896Z,7.96
2019-01-05T02:19:33.157Z,7.95
2019-01-05T02:22:41.234Z,7.92
2019-01-05T02:25:20.163Z,7.94
2019-01-05T02:28:14.086Z,7.97
2019-01-05T02:31:08.008Z,7.95
2019-01-05T02:34:03.591Z,7.95
2019-01-05T02:37:21.767Z,7.96
2019-01-05T02:40:00.830Z,7.96
2019-01-05T02:43:22.498Z,7.93
2019-01-05T02:46:22.851Z,7.92
2019-01-05T02:49:39.350Z,7.92
2019-01-05T02:52:27.628Z,7.91
2019-01-05T02:55:25.841Z,7.90
2019-01-05T02:58:04.469Z,7.86
2019-01-05T03:01:10.944Z,7.86
2019-01-05T03:04:22.900Z,7.89
2019-01-05T03:07:21.542Z,7.86
2019-01-05T03:10:28.113Z,7.87
2019-01-05T03:13:18.994Z,7.86
2019-01-05T03:16:17.892Z,7.89
2019-01-05T03:19:20.844Z,7.89
2019-01-05T03:22:35.036Z,7.92
2019-01-05T03:25:33.601Z,7.87
2019-01-05T03:28:24.719Z,7.87
2019-01-05T03:31:22.167Z,7.90
2019-01-05T03:34:04.142Z,7.90
2019-01-05T03:37:12.948Z,7.94
2019-01-05T03:40:22.155Z,7.95
2019-01-05T03:43:04.469Z,7.94
2019-01-05T03:46:11.999Z,7.94
2019-01-05T03:49:06.496Z,7.91
2019-01-05T03:52:12.583Z,7.87
2019-01-05T03:55:18.828Z,7.90
2019-01-05T03:58:06.659Z,7.89
2019-01-05T04:01:11.646Z,7.94
2019-01-05T04:04:02.255Z,7.93
2019-01-05T04:06:50.556Z,7.92
2019-01-05T04:09:29.793Z,7.89
2019-01-05T04:12:27.086Z,7.90
2019-01-05T04:15:49.981Z,7.93
2019-01-05T04:18:52.439Z,7.87
2019-01-05T04:22:02.776Z,7.88
2019-01-05T04:25:08.768Z,7.84
2019-01-05T04:27:53.328Z,7.90
2019-01-05T04:30:48.591Z,7.92
2019-01-05T04:33:45.567Z,7.88
2019-01-05T04:36:48.536Z,7.91
2019-01-05T04:39:43.835Z,7.85
2019-01-05T04:42:41.100Z,7.86
2019-01-05T04:45:34.076Z,7.86
2019-01-05T04:48:31.877Z,7.86
2019-01-05T04:51:21.123Z,7.84
2019-01-05T04:54:12.474Z,7.82
2019-01-05T04:57:06.888Z,7.83
2019-01-05T04:59:51.753Z,7.87
2019-01-05T05:02:37.028Z,7.85
2019-01-05T05:05:33.968Z,7.82
2019-01-05T05:08:28.216Z,7.80
2019-01-05T05:11:19.116Z,7.82
2019-01-05T05:14:04.098Z,7.86
2019-01-05T05:17:11.388Z,7.88
2019-01-05T05:20:10.260Z,7.89
2019-01-05T05:23:06.172Z,7.91
2019-01-05T05:26:12.760Z,7.94
2019-01-05T05:29:12.697Z,7.94
2019-01-05T05:32:06.493Z,7.88
2019-01-05T05:34:59.049Z,7.91
2019-01-05T05:37:46.944Z,7.94
2019-01-05T05:41:07.389Z,7.91
2019-01-05T05:43:52.409Z,7.93
2019-01-05T05:47:07.838Z,7.93
2019-01-05T05:50:12.588Z,7.94
2019-01-05T05:53:02.437Z,7.96
2019-01-05T05:55:56.274Z,7.95
2019-01-05T05:58:52.209Z,7.95
2019-01-05T06:01:57.121Z,7.97
2019-01-05T06:04:30.346Z,7.99
2019-01-05T06:07:31.894Z,8.02
2019-01-05T06:10:30.295Z,7.99
2019-01-05T06:13:40.174Z,8.04
2019-01-05T06:16:25.026Z,8.00
2019-01-05T06:19:44.981Z,8.03
2019-01-05T06:22:49.811Z,8.04
2019-01-05T06:25:28.899Z,8.06
2019-01-05T06:28:28.954Z,8.05
2019-01-05T06:31:26.374Z,8.10
2019-01-05T06:34:17.712Z,8.11
2019-01-05T06:37:05.682Z,8.14
2019-01-05T06:39:41.627Z,8.13
2019-01-05T06:42:54.313Z,8.11
2019-01-05T06:46:03.698Z,8.10
2019-01-05T06:49:05.706Z,8.12
2019-01-05T06:52:13.640Z,8.11
2019-01-05T06:55:04.381Z,8.12
2019-01-05T06:58:10.575Z,8.11
2019-01-05T07:00:55.540Z,8.12
2019-01-05T07:03:54.297Z,8.15
2019-01-05T07:06:53.197Z,8.19
2019-01-05T07:09:41.330Z,8.18
2019-01-05T07:12:23.394Z,8.18
2019-01-05T07:15:13.629Z,8.19
2019-01-05T07:18:07.853Z,8.23
2019-01-05T07:21:03.639Z,8.22
2019-01-05T07:23:54.683Z,8.19
2019-01-05T07:26:59.639Z,8.15
2019-01-05T07:30:12.342Z,8.20
2019-01-05T07:33:03.579Z,8.19
2019-01-05T07:36:25.232Z,8.22
2019-01-05T07:39:31.622Z,8.21
2019-01-05T07:42:25.703Z,8.16
2019-01-05T07:45:21.676Z,8.16
2019-01-05T07:48:33.860Z,8.16
2019-01-05T07:51:43.222Z,8.14
2019-01-05T07:55:02.010Z,8.24
2019-01-05T07:57:35.175Z,8.19
2019-01-05T08:00:35.699Z,8.13
2019-01-05T08:03:40.568Z,8.14
2019-01-05T08:06:30.264Z,8.12
2019-01-05T08:09:47.438Z,8.11
2019-01-05T08:12:47.049Z,8.08
2019-01-05T08:15:54.745Z,8.03
2019-01-05T08:18:53.999Z,8.06
2019-01-05T08:21:59.390Z,7.98
2019-01-05T08:24:57.050Z,8.01
2019-01-05T08:27:45.132Z,7.95
2019-01-05T08:31:07.383Z,7.93
2019-01-05T08:33:58.225Z,7.89
2019-01-05T08:37:06.460Z,7.98
2019-01-05T08:40:17.476Z,7.93
2019-01-05T08:43:40.160Z,7.89
2019-01-05T08:46:46.847Z,7.88
2019-01-05T08:49:46.999Z,7.90
2019-01-05T08:52:26.211Z,7.91
2019-01-05T08:55:14.248Z,7.89
2019-01-05T08:58:02.346Z,7.92
2019-01-05T09:01:00.374Z,7.91
2019-01-05T09:04:10.443Z,7.96
2019-01-05T09:07:06.727Z,7.97
2019-01-05T09:10:06.878Z,7.94
2019-01-05T09:13:22.533Z,7.93
2019-01-05T09:16:27.550Z,8.00
2019-01-05T09:19:26.010Z,7.97
2019-01-05T09:22:17.110Z,7.98
2019-01-05T09:25:24.894Z,8.00
2019-01-05T09:28:40.229Z,7.93
2019-01-05T09:31:45.466Z,8.04
2019-01-05T09:34:57.530Z,8.01
2019-01-05T09:37:48.538Z,8.01
2019-01-05T09:40:42.002Z,8.02
2019-01-05T09:43:33.151Z,8.02
2019-01-05T09:46:06.298Z,8.06
2019-01-05T09:49:00.465Z,8.02
2019-01-05T09:51:36.747Z,8.03
2019-01-05T09:54:26.728Z,8.09
2019-01-05T09:57:21.047Z,8.03
2019-01-05T10:00:22.605Z,8.06
2019-01-05T10:03:20.167Z,8.07
2019-01-05T10:06:11.338Z,8.06
2019-01-05T10:09:22.383Z,8.06
2019-01-05T10:12:22.845Z,8.10
2019-01-05T10:15:27.957Z,8.04
2019-01-05T10:18:31.203Z,8.07
2019-01-05T10:21:24.908Z,8.06
2019-01-05T10:24:15.463Z,8.09
2019-01-05T10:27:03.423Z,8.07
2019-01-05T10:29:54.681Z,8.09
2019-01-05T10:32:42.525Z,8.10
2019-01-05T10:35:18.443Z,8.09
2019-01-05T10:38:32.393Z,8.11
2019-01-05T10:41:17.368Z,8.10
2019-01-05T10:44:27.887Z,8.12
2019-01-05T10:47:15.955Z,8.13
2019-01-05T10:50:08.082Z,8.15
2019-01-05T10:53:17.616Z,8.15
2019-01-05T10:56:19.639Z,8.19
2019-01-05T10:59:16.981Z,8.27
2019-01-05T11:01:59.063Z,8.23
2019-01-05T11:04:37.733Z,8.19
2019-01-05T11:08:04.064Z,8.29
2019-01-05T11:10:56.947Z,8.26
2019-01-05T11:13:58.659Z,8.30
2019-01-05T11:16:57.255Z,8.26
2019-01-05T11:20:20.418Z,8.24
2019-01-05T11:23:26.285Z,8.27
2019-01-05T11:26:14.081Z,8.28
2019-01-05T11:29:12.767Z,8.27
2019-01-05T11:32:03.820Z,8.26
2019-01-05T11:35:22.080Z,8.29
2019-01-05T11:38:34.731Z,8.30
2019-01-05T11:41:24.477Z,8.29
2019-01-05T11:44:27.742Z,8.25
2019-01-05T11:47:12.591Z,8.29
2019-01-05T11:50:25.649Z,8.29
2019-01-05T11:53:25.617Z,8.33
2019-01-05T11:56:25.640Z,8.31
2019-01-05T11:59:04.487Z,8.30
2019-01-05T12:01:58.872Z,8.24
2019-01-05T12:05:08.452Z,8.29
2019-01-05T12:07:53.400Z,8.30
2019-01-05T12:11:07.336Z,8.26
2019-01-05T12:14:19.652Z,8.28
2019-01-05T12:17:18.314Z,8.29
2019-01-05T12:20:00.250Z,8.27
2019-01-05T12:22:33.445Z,8.29
2019-01-05T12:25:38.363Z,8.27
2019-01-05T12:28:47.819Z,8.31
2019-01-05T12:31:42.208Z,8.31
2019-01-05T12:34:40.649Z,8.30
2019-01-05T12:37:25.282Z,8.32
2019-01-05T12:40:22.805Z,8.32
2019-01-05T12:43:53.632Z,8.33
2019-01-05T12:46:50.641Z,8.33
2019-01-05T12:49:52.730Z,8.38
2019-01-05T12:52:32.078Z,8.33
2019-01-05T12:55:43.352Z,8.38
2019-01-05T12:58:43.625Z,8.38
2019-01-05T13:01:25.212Z,8.36
2019-01-05T13:04:24.700Z,8.37
2019-01-05T13:07:25.879Z,8.38
2019-01-05T13:10:27.242Z,8.36
2019-01-05T13:13:28.922Z,8.35
2019-01-05T13:16:54.519Z,8.32
2019-01-05T13:19:45.737Z,8.28
2019-01-05T13:22:45.621Z,8.33
2019-01-05T13:25:46.707Z,8.31
2019-01-05T13:28:54.523Z,8.35
2019-01-05T13:31:51.762Z,8.38
2019-01-05T13:35:02.529Z,8.39
2019-01-05T13:38:04.275Z,8.41
2019-01-05T13:41:04.599Z,8.42
2019-01-05T13:44:09.208Z,8.42
2019-01-05T13:47:04.848Z,8.39
2019-01-05T13:49:54.187Z,8.40
2019-01-05T13:52:42.355Z,8.37
2019-01-05T13:55:31.670Z,8.36
2019-01-05T13:58:18.055Z,8.32
2019-01-05T14:00:47.955Z,8.33
2019-01-05T14:03:33.979Z,8.33
2019-01-05T14:06:18.690Z,8.31
2019-01-05T14:09:00.355Z,8.32
2019-01-05T14:11:33.041Z,8.27
2019-01-05T14:14:08.911Z,8.27
2019-01-05T14:16:47.768Z,8.28
2019-01-05T14:19:20.404Z,8.28
2019-01-05T14:22:06.178Z,8.30
2019-01-05T14:24:36.085Z,8.31
2019-01-05T14:27:11.912Z,8.26
2019-01-05T14:29:41.808Z,8.26
2019-01-05T14:32:28.103Z,8.26
2019-01-05T14:35:00.422Z,8.26
2019-01-05T14:37:46.496Z,8.26
2019-01-05T14:40:34.867Z,8.28
2019-01-05T14:43:04.777Z,8.29
2019-01-05T14:45:43.158Z,8.24
2019-01-05T14:48:15.801Z,8.23
2019-01-05T14:50:45.752Z,8.21
2019-01-05T14:53:31.925Z,8.23
2019-01-05T14:56:01.967Z,8.21
2019-01-05T14:58:34.164Z,8.22
2019-01-05T15:01:06.939Z,8.18
2019-01-05T15:03:45.476Z,8.13
2019-01-05T15:06:18.679Z,8.18
2019-01-05T15:08:48.589Z,8.21
2019-01-05T15:11:18.518Z,8.19
2019-01-05T15:13:48.461Z,8.20
2019-01-05T15:16:34.870Z,8.18
2019-01-05T15:19:16.747Z,8.16
2019-01-05T15:22:03.080Z,8.19
2019-01-05T15:24:35.823Z,8.25
2019-01-05T15:27:05.716Z,8.17
2019-01-05T15:29:41.193Z,8.15
2019-01-05T15:32:13.796Z,8.17
2019-01-05T15:34:49.773Z,8.15
2019-01-05T15:37:35.881Z,8.14
2019-01-05T15:40:08.650Z,8.19
2019-01-05T15:42:50.568Z,8.12
2019-01-05T15:45:23.338Z,8.12
2019-01-05T15:48:02.233Z,8.13
2019-01-05T15:50:40.875Z,8.10
2019-01-05T15:53:19.861Z,8.10
2019-01-05T15:55:58.585Z,8.10
2019-01-05T15:58:28.512Z,8.09
2019-01-05T16:01:04.380Z,8.08
2019-01-05T16:03:34.345Z,8.12
2019-01-05T16:06:22.553Z,8.14
2019-01-05T16:09:01.305Z,8.10
2019-01-05T16:11:40.897Z,8.10
2019-01-05T16:14:10.833Z,8.08
2019-01-05T16:16:55.511Z,8.08
2019-01-05T16:19:31.452Z,8.04
2019-01-05T16:22:01.408Z,8.04
2019-01-05T16:24:47.690Z,8.06
2019-01-05T16:27:23.581Z,8.08
2019-01-05T16:29:56.509Z,8.10
2019-01-05T16:32:42.837Z,8.11
2019-01-05T16:35:29.155Z,8.15
2019-01-05T16:38:05.008Z,8.13
2019-01-05T16:40:50.200Z,8.15
2019-01-05T16:43:20.204Z,8.12
2019-01-05T16:46:01.959Z,8.12
2019-01-05T16:48:48.204Z,8.09
2019-01-05T16:51:34.331Z,8.11
2019-01-05T16:54:04.286Z,8.11
2019-01-05T16:56:34.247Z,8.08
2019-01-05T16:59:06.980Z,8.04
2019-01-05T17:01:53.362Z,8.07
2019-01-05T17:04:29.021Z,8.07
2019-01-05T17:06:59.011Z,8.10
2019-01-05T17:09:45.474Z,8.10
2019-01-05T17:12:29.203Z,8.06
2019-01-05T17:15:08.197Z,8.07
2019-01-05T17:17:47.103Z,8.07
2019-01-05T17:20:29.385Z,8.06
2019-01-05T17:23:08.300Z,8.10
2019-01-05T17:25:38.234Z,8.07
2019-01-05T17:28:20.392Z,8.04
2019-01-05T17:30:56.252Z,8.05
2019-01-05T17:33:44.358Z,8.04
2019-01-05T17:36:24.011Z,8.07
2019-01-05T17:39:10.268Z,8.04
2019-01-05T17:41:56.364Z,8.10
2019-01-05T17:44:31.721Z,8.09
2019-01-05T17:47:17.890Z,8.05
2019-01-05T17:50:03.866Z,8.08
2019-01-05T17:52:49.769Z,8.13
2019-01-05T17:55:36.070Z,8.10
2019-01-05T17:58:22.162Z,8.04
2019-01-05T18:00:57.789Z,8.04
2019-01-05T18:03:36.184Z,8.01
2019-01-05T18:06:08.844Z,7.99
2019-01-05T18:08:38.749Z,8.00
2019-01-05T18:11:08.690Z,8.01
2019-01-05T18:13:38.659Z,8.01
2019-01-05T18:16:08.701Z,7.99
2019-01-05T18:18:47.799Z,8.02
2019-01-05T18:21:29.934Z,8.01
2019-01-05T18:23:59.848Z,8.04
2019-01-05T18:26:35.758Z,8.06
2019-01-05T18:29:21.814Z,8.00
2019-01-05T18:31:54.454Z,8.05
2019-01-05T18:34:27.140Z,8.05
2019-01-05T18:37:12.205Z,8.02
2019-01-05T18:39:51.279Z,8.04
2019-01-05T18:42:37.285Z,8.00
2019-01-05T18:45:07.951Z,8.02
2019-01-05T18:47:37.924Z,8.01
2019-01-05T18:50:20.885Z,8.01
2019-01-05T18:53:07.499Z,7.99
2019-01-05T18:55:55.855Z,7.95
2019-01-05T18:58:37.855Z,8.04
2019-01-05T19:01:16.639Z,8.01
2019-01-05T19:04:01.703Z,7.98
2019-01-05T19:06:31.581Z,7.95
2019-01-05T19:09:18.174Z,7.92
2019-01-05T19:12:08.600Z,7.98
2019-01-05T19:14:38.326Z,7.99
2019-01-05T19:17:16.958Z,8.05
2019-01-05T19:20:02.920Z,8.04
2019-01-05T19:22:32.802Z,8.00
2019-01-05T19:25:14.941Z,7.97
2019-01-05T19:27:50.909Z,7.94
2019-01-05T19:30:21.021Z,7.91
2019-01-05T19:32:53.799Z,7.86
2019-01-05T19:35:23.702Z,7.91
2019-01-05T19:38:02.354Z,7.88
2019-01-05T19:40:38.254Z,7.91
2019-01-05T19:43:24.528Z,7.88
2019-01-05T19:46:00.071Z,7.85
2019-01-05T19:48:30.405Z,7.84
2019-01-05T19:51:00.402Z,7.83
2019-01-05T19:53:36.050Z,7.84
2019-01-05T19:56:08.642Z,7.85
2019-01-05T19:58:56.623Z,7.84
2019-01-05T20:01:42.609Z,7.79
2019-01-05T20:04:15.568Z,7.83
2019-01-05T20:06:51.283Z,7.78
2019-01-05T20:09:24.387Z,7.80
2019-01-05T20:12:10.469Z,7.82
2019-01-05T20:14:49.900Z,7.81
2019-01-05T20:17:36.334Z,7.81
2019-01-05T20:20:13.293Z,7.86
2019-01-05T20:22:46.600Z,7.86
2019-01-05T20:25:23.110Z,7.93
2019-01-05T20:28:10.187Z,7.85
2019-01-05T20:30:57.644Z,7.89
2019-01-05T20:33:28.010Z,7.86
2019-01-05T20:36:01.473Z,7.86
2019-01-05T20:38:44.048Z,7.84
2019-01-05T20:41:30.369Z,7.85
2019-01-05T20:44:17.040Z,7.90
2019-01-05T20:46:52.780Z,7.88
2019-01-05T20:49:34.864Z,7.87
2019-01-05T20:52:05.094Z,7.85
2019-01-05T20:54:35.065Z,7.84
2019-01-05T20:57:05.000Z,7.83
2019-01-05T20:59:51.215Z,7.81
2019-01-05T21:02:21.140Z,7.84
2019-01-05T21:05:07.161Z,7.81
2019-01-05T21:07:54.587Z,7.84
2019-01-05T21:10:39.660Z,7.78
2019-01-05T21:13:25.976Z,7.81
2019-01-05T21:16:07.931Z,7.84
2019-01-05T21:18:48.768Z,7.83
2019-01-05T21:21:18.669Z,7.85
2019-01-05T21:23:48.587Z,7.80
2019-01-05T21:26:34.838Z,7.77
2019-01-05T21:29:20.033Z,7.85
2019-01-05T21:31:56.053Z,7.83
2019-01-05T21:34:34.888Z,7.77
2019-01-05T21:37:21.366Z,7.78
2019-01-05T21:40:06.350Z,7.75
2019-01-05T21:42:42.133Z,7.80
2019-01-05T21:45:12.117Z,7.76
2019-01-05T21:47:58.390Z,7.78
2019-01-05T21:50:34.657Z,7.78
2019-01-05T21:53:04.603Z,7.80
2019-01-05T21:55:50.566Z,7.76
2019-01-05T21:58:20.535Z,7.79
2019-01-05T22:01:06.830Z,7.76
2019-01-05T22:03:51.823Z,7.79
2019-01-05T22:06:27.658Z,7.78
2019-01-05T22:09:14.183Z,7.76
2019-01-05T22:11:53.038Z,7.76
2019-01-05T22:14:38.114Z,7.74
2019-01-05T22:17:10.987Z,7.74
2019-01-05T22:19:57.140Z,7.77
2019-01-05T22:22:29.888Z,7.73
2019-01-05T22:25:18.032Z,7.74
2019-01-05T22:27:50.666Z,7.81
2019-01-05T22:30:26.585Z,7.77
2019-01-05T22:32:56.501Z,7.77
2019-01-05T22:35:29.204Z,7.72
2019-01-05T22:38:15.246Z,7.75
2019-01-05T22:41:01.585Z,7.72
2019-01-05T22:43:31.497Z,7.73
2019-01-05T22:46:01.435Z,7.68
2019-01-05T22:48:31.340Z,7.71
2019-01-05T22:51:01.372Z,7.71
2019-01-05T22:53:33.940Z,7.70
2019-01-05T22:56:13.114Z,7.72
2019-01-05T22:58:45.729Z,7.71
2019-01-05T23:01:32.074Z,7.71
2019-01-05T23:04:18.365Z,7.73
2019-01-05T23:06:51.247Z,7.76
2019-01-05T23:09:27.216Z,7.72
2019-01-05T23:12:06.438Z,7.72
2019-01-05T23:14:54.342Z,7.71
2019-01-05T23:17:30.361Z,7.76
2019-01-05T23:20:00.268Z,7.73
2019-01-05T23:22:35.673Z,7.72
2019-01-05T23:25:05.659Z,7.68
2019-01-05T23:27:38.356Z,7.70
2019-01-05T23:30:10.935Z,7.75
2019-01-05T23:32:50.067Z,7.74
2019-01-05T23:35:36.160Z,7.72
2019-01-05T23:38:22.284Z,7.75
2019-01-05T23:41:10.590Z,7.71
2019-01-05T23:43:56.596Z,7.69
2019-01-05T23:46:42.891Z,7.71
2019-01-05T23:49:27.481Z,7.70
2019-01-05T23:51:59.878Z,7.68
2019-01-05T23:54:45.718Z,7.68
2019-01-05T23:57:32.082Z,7.71
